Decoded Metar for VYMD (MANDALAY in MYANMAR) (IATA:MDL) | Meteo·Mobile Aviation Weather
aviador You're here:

VYMD Decoded Metar

MANDALAY in MYANMAR
Report Time2019-10-21 08:30:00
UTC Time2019-10-21 08:36:38
Flight Rules mvfr MVFR
Wind340° at 05 kt
W.Decomp.*RWY 35: 4.9 kt HW 0.8 kt LCW
Visibility8000 m
Phenomena:N/A
Clouds:Broken 020 Hf
Few CB 025 Hf
Expected CloudBase > 4,400 ft AGL from Temp-Dew spread
Ceiling2,000 ft
Temp35°C (ISA +21)
Dew Point24°C (53% RH)
Heat Index41.9°C
QNH1007 hPa
Density Alt3,228 ft
Elevation299 ft
Report Wrong Elevation
Raw Report
METAR VYMD 210830Z 34005KT 8000 BKN020 FEW025CB 35/24 Q1007=

Extra information for VYMD:More info

Metar Taf Metar & Taf Last 4 Metars F.Rules Stats Wind Profile Meteogram Temp Stats Airport Information Weather charts Add Link Nearby VenuesMetar ALERT Operation Metar Decoded Social comments